createdAt,value
2019-03-25T00:01:56.656Z,77.60
2019-03-25T00:04:25.502Z,77.50
2019-03-25T00:06:54.349Z,77.80
2019-03-25T00:09:23.231Z,77.60
2019-03-25T00:11:52.066Z,77.60
2019-03-25T00:14:20.925Z,78.00
2019-03-25T00:16:49.807Z,78.30
2019-03-25T00:19:18.669Z,78.50
2019-03-25T00:21:47.504Z,78.40
2019-03-25T00:24:16.425Z,78.00
2019-03-25T00:26:45.273Z,78.30
2019-03-25T00:29:14.139Z,78.80
2019-03-25T00:31:50.057Z,79.10
2019-03-25T00:34:20.651Z,79.40
2019-03-25T00:36:49.482Z,79.50
2019-03-25T00:39:19.884Z,79.00
2019-03-25T00:41:48.746Z,78.80
2019-03-25T00:44:21.807Z,78.70
2019-03-25T00:46:54.871Z,78.90
2019-03-25T00:49:32.600Z,79.10
2019-03-25T00:52:01.495Z,79.40
2019-03-25T00:54:31.937Z,80.30
2019-03-25T00:57:05.778Z,79.60
2019-03-25T00:59:34.724Z,79.70
2019-03-25T01:02:12.797Z,79.90
2019-03-25T01:04:41.696Z,80.10
2019-03-25T01:07:10.549Z,79.80
2019-03-25T01:09:39.384Z,79.80
2019-03-25T01:12:08.306Z,80.00
2019-03-25T01:14:37.134Z,80.10
2019-03-25T01:17:06.001Z,79.60
2019-03-25T01:19:34.906Z,79.60
2019-03-25T01:22:03.769Z,79.40
2019-03-25T01:24:32.612Z,79.70
2019-03-25T01:27:01.812Z,80.20
2019-03-25T01:29:30.668Z,80.20
2019-03-25T01:31:59.519Z,80.50
2019-03-25T01:34:28.429Z,80.60
2019-03-25T01:36:57.268Z,80.10
2019-03-25T01:39:26.125Z,79.50
2019-03-25T01:41:55.055Z,79.50
2019-03-25T01:44:23.889Z,79.90
2019-03-25T01:46:52.727Z,79.60
2019-03-25T01:49:21.580Z,79.30
2019-03-25T01:51:50.381Z,79.80
2019-03-25T01:54:19.228Z,80.30
2019-03-25T01:56:48.117Z,80.30
2019-03-25T01:59:16.962Z,80.80
2019-03-25T02:01:45.794Z,80.90
2019-03-25T02:04:14.710Z,80.90
2019-03-25T02:06:43.565Z,80.80
2019-03-25T02:09:12.416Z,81.20
2019-03-25T02:11:41.325Z,81.30
2019-03-25T02:14:10.167Z,81.80
2019-03-25T02:16:39.025Z,81.60
2019-03-25T02:19:07.932Z,82.00
2019-03-25T02:21:36.788Z,82.40
2019-03-25T02:24:05.637Z,82.60
2019-03-25T02:26:34.590Z,82.40
2019-03-25T02:29:03.427Z,82.20
2019-03-25T02:31:32.303Z,82.10
2019-03-25T02:34:01.204Z,81.90
2019-03-25T02:36:30.063Z,81.90
2019-03-25T02:38:58.926Z,82.10
2019-03-25T02:41:27.803Z,82.30
2019-03-25T02:43:56.648Z,82.60
2019-03-25T02:46:25.501Z,82.60
2019-03-25T02:48:54.423Z,82.20
2019-03-25T02:51:23.291Z,82.10
2019-03-25T02:53:52.158Z,82.30
2019-03-25T02:56:21.047Z,82.50
2019-03-25T02:58:49.900Z,82.60
2019-03-25T03:01:18.752Z,82.90
2019-03-25T03:03:47.666Z,83.30
2019-03-25T03:06:16.533Z,83.30
2019-03-25T03:08:47.499Z,83.40
2019-03-25T03:11:15.965Z,83.30
2019-03-25T03:13:44.825Z,83.00
2019-03-25T03:16:13.664Z,83.00
2019-03-25T03:18:42.569Z,83.30
2019-03-25T03:21:11.407Z,83.40
2019-03-25T03:23:40.265Z,83.40
2019-03-25T03:26:09.158Z,83.60
2019-03-25T03:28:38.010Z,83.60
2019-03-25T03:31:06.885Z,83.60
2019-03-25T03:33:35.767Z,83.40
2019-03-25T03:36:04.645Z,83.80
2019-03-25T03:38:33.473Z,83.80
2019-03-25T03:41:02.562Z,83.50
2019-03-25T03:43:31.432Z,83.40
2019-03-25T03:46:00.273Z,83.70
2019-03-25T03:48:29.186Z,84.10
2019-03-25T03:50:58.432Z,84.40
2019-03-25T03:53:27.677Z,83.80
2019-03-25T03:56:11.552Z,83.90
2019-03-25T03:58:28.552Z,84.10
2019-03-25T04:00:57.406Z,84.20
2019-03-25T04:03:26.311Z,84.30
2019-03-25T04:05:55.348Z,84.40
2019-03-25T04:08:24.206Z,84.70
2019-03-25T04:10:53.091Z,84.60
2019-03-25T04:13:21.979Z,84.60
2019-03-25T04:15:50.818Z,84.60
2019-03-25T04:18:19.757Z,84.90
2019-03-25T04:20:48.603Z,85.20
2019-03-25T04:23:17.451Z,85.40
2019-03-25T04:25:46.351Z,85.00
2019-03-25T04:28:15.206Z,84.70
2019-03-25T04:30:44.053Z,84.50
2019-03-25T04:33:12.946Z,84.50
2019-03-25T04:35:42.680Z,84.40
2019-03-25T04:38:11.579Z,84.60
2019-03-25T04:40:40.491Z,84.80
2019-03-25T04:43:09.344Z,85.00
2019-03-25T04:45:38.205Z,84.60
2019-03-25T04:48:07.138Z,85.20
2019-03-25T04:50:35.997Z,84.90
2019-03-25T04:53:04.841Z,84.50
2019-03-25T04:55:33.755Z,83.90
2019-03-25T04:58:02.611Z,84.30
2019-03-25T05:00:33.740Z,84.40
2019-03-25T05:03:02.668Z,84.60
2019-03-25T05:05:31.520Z,84.80
2019-03-25T05:08:00.375Z,84.70
2019-03-25T05:10:29.285Z,84.60
2019-03-25T05:12:58.140Z,84.60
2019-03-25T05:15:27.001Z,84.40
2019-03-25T05:17:55.869Z,84.30
2019-03-25T05:20:24.758Z,84.00
2019-03-25T05:22:53.646Z,83.70
2019-03-25T05:25:22.510Z,84.00
2019-03-25T05:27:51.349Z,83.80
2019-03-25T05:30:22.865Z,83.60
2019-03-25T05:32:50.774Z,83.80
2019-03-25T05:35:19.623Z,83.80
2019-03-25T05:37:48.478Z,83.70
2019-03-25T05:40:18.334Z,83.30
2019-03-25T05:42:47.176Z,82.50
2019-03-25T05:45:16.048Z,82.00
2019-03-25T05:47:44.954Z,81.30
2019-03-25T05:50:13.814Z,80.60
2019-03-25T05:52:42.655Z,80.00
2019-03-25T05:55:11.538Z,79.70
2019-03-25T05:57:40.401Z,79.50
2019-03-25T06:00:10.579Z,79.30
2019-03-25T06:02:39.479Z,79.10
2019-03-25T06:05:08.822Z,79.00
2019-03-25T06:07:37.681Z,78.70
2019-03-25T06:10:07.601Z,78.10
2019-03-25T06:12:36.440Z,77.80
2019-03-25T06:15:06.786Z,77.70
2019-03-25T06:17:35.681Z,77.70
2019-03-25T06:20:06.783Z,77.60
2019-03-25T06:22:35.675Z,76.60
2019-03-25T06:25:07.007Z,76.70
2019-03-25T06:27:35.862Z,76.70
2019-03-25T06:30:06.987Z,76.60
2019-03-25T06:32:36.065Z,75.70
2019-03-25T06:35:08.887Z,75.90
2019-03-25T06:37:37.699Z,74.80
2019-03-25T06:40:08.271Z,74.90
2019-03-25T06:42:37.174Z,74.50
2019-03-25T06:45:08.099Z,73.20
2019-03-25T06:47:37.004Z,72.10
2019-03-25T06:50:09.645Z,71.80
2019-03-25T06:52:38.469Z,73.20
2019-03-25T06:55:09.316Z,70.00
2019-03-25T06:57:38.749Z,68.80
2019-03-25T07:00:10.101Z,67.60
2019-03-25T07:02:39.002Z,61.00
2019-03-25T07:05:08.566Z,50.80
2019-03-25T07:07:37.458Z,44.70
2019-03-25T07:10:06.959Z,40.00
2019-03-25T07:12:36.893Z,36.50
2019-03-25T07:15:08.930Z,33.90
2019-03-25T07:17:37.855Z,32.30
2019-03-25T07:20:11.165Z,31.70
2019-03-25T07:22:40.071Z,31.00
2019-03-25T07:25:09.199Z,30.80
2019-03-25T07:27:38.034Z,30.40
2019-03-25T07:30:08.397Z,29.50
2019-03-25T07:32:37.653Z,29.20
2019-03-25T07:35:07.697Z,28.80
2019-03-25T07:37:36.555Z,28.30
2019-03-25T07:40:08.550Z,28.00
2019-03-25T07:42:38.232Z,27.60
2019-03-25T07:45:08.310Z,27.90
2019-03-25T07:47:37.462Z,28.00
2019-03-25T07:50:07.999Z,28.40
2019-03-25T07:52:36.858Z,28.50
2019-03-25T07:55:06.877Z,28.30
2019-03-25T07:57:35.752Z,28.90
2019-03-25T08:00:13.558Z,27.90
2019-03-25T08:02:38.089Z,28.60
2019-03-25T08:05:07.371Z,27.60
2019-03-25T08:07:36.239Z,27.30
2019-03-25T08:10:06.558Z,27.20
2019-03-25T08:12:35.701Z,27.30
2019-03-25T08:15:06.585Z,27.30
2019-03-25T08:17:35.552Z,27.40
2019-03-25T08:20:08.509Z,28.10
2019-03-25T08:22:37.372Z,27.30
2019-03-25T08:25:07.491Z,26.80
2019-03-25T08:27:36.352Z,27.00
2019-03-25T08:30:07.770Z,26.10
2019-03-25T08:32:36.687Z,26.20
2019-03-25T08:35:06.833Z,25.40
2019-03-25T08:37:35.672Z,25.50
2019-03-25T08:40:23.869Z,25.70
2019-03-25T08:42:52.718Z,25.80
2019-03-25T08:45:21.578Z,25.80
2019-03-25T08:47:50.495Z,25.30
2019-03-25T08:50:19.351Z,25.00
2019-03-25T08:52:48.182Z,24.50
2019-03-25T08:55:17.098Z,24.90
2019-03-25T08:57:45.948Z,25.00
2019-03-25T09:00:15.178Z,25.50
2019-03-25T09:02:44.181Z,25.50
2019-03-25T09:05:13.117Z,25.70
2019-03-25T09:07:41.988Z,26.00
2019-03-25T09:10:11.489Z,26.10
2019-03-25T09:12:40.357Z,25.70
2019-03-25T09:15:10.496Z,25.50
2019-03-25T09:17:39.387Z,25.20
2019-03-25T09:20:10.443Z,25.10
2019-03-25T09:22:39.487Z,25.30
2019-03-25T09:25:08.907Z,24.40
2019-03-25T09:27:37.769Z,24.10
2019-03-25T09:30:09.128Z,24.20
2019-03-25T09:32:38.004Z,24.10
2019-03-25T09:35:09.053Z,24.30
2019-03-25T09:37:38.995Z,24.30
2019-03-25T09:40:10.098Z,24.70
2019-03-25T09:42:39.047Z,25.00
2019-03-25T09:45:09.412Z,25.10
2019-03-25T09:47:38.302Z,24.70
2019-03-25T09:50:08.179Z,25.30
2019-03-25T09:52:38.835Z,25.50
2019-03-25T09:55:08.473Z,25.40
2019-03-25T09:57:37.344Z,25.40
2019-03-25T10:00:10.925Z,25.20
2019-03-25T10:02:39.862Z,25.30
2019-03-25T10:05:08.999Z,25.30
2019-03-25T10:07:37.853Z,25.30
2019-03-25T10:10:09.954Z,25.50
2019-03-25T10:12:38.824Z,25.00
2019-03-25T10:15:09.195Z,24.70
2019-03-25T10:17:38.070Z,24.60
2019-03-25T10:20:08.304Z,24.90
2019-03-25T10:22:37.174Z,25.90
2019-03-25T10:25:07.610Z,27.60
2019-03-25T10:27:36.441Z,29.20
2019-03-25T10:30:10.106Z,30.20
2019-03-25T10:32:39.108Z,30.90
2019-03-25T10:35:08.481Z,31.50
2019-03-25T10:37:37.332Z,31.60
2019-03-25T10:40:10.954Z,32.20
2019-03-25T10:42:39.804Z,32.40
2019-03-25T10:45:09.857Z,32.70
2019-03-25T10:47:38.758Z,33.40
2019-03-25T10:50:08.194Z,33.70
2019-03-25T10:52:37.054Z,34.00
2019-03-25T10:55:08.098Z,33.40
2019-03-25T10:57:37.071Z,33.00
2019-03-25T11:00:08.195Z,33.00
2019-03-25T11:02:37.106Z,33.00
2019-03-25T11:05:07.758Z,33.10
2019-03-25T11:07:36.642Z,33.20
2019-03-25T11:10:12.957Z,33.50
2019-03-25T11:12:41.800Z,34.00
2019-03-25T11:15:11.153Z,34.50
2019-03-25T11:17:40.058Z,35.00
2019-03-25T11:20:10.427Z,35.00
2019-03-25T11:22:39.271Z,35.80
2019-03-25T11:25:08.979Z,37.00
2019-03-25T11:27:37.834Z,37.40
2019-03-25T11:30:09.382Z,37.40
2019-03-25T11:32:38.280Z,37.40
2019-03-25T11:35:09.304Z,36.90
2019-03-25T11:37:38.152Z,37.30
2019-03-25T11:40:08.757Z,37.00
2019-03-25T11:42:37.599Z,36.90
2019-03-25T11:45:10.737Z,37.80
2019-03-25T11:47:39.659Z,37.00
2019-03-25T11:50:08.804Z,37.80
2019-03-25T11:52:37.679Z,37.40
2019-03-25T11:55:07.444Z,38.90
2019-03-25T11:57:36.278Z,37.70
2019-03-25T12:00:08.126Z,37.90
2019-03-25T12:02:37.034Z,38.70
2019-03-25T12:05:09.681Z,39.10
2019-03-25T12:07:38.523Z,38.70
2019-03-25T12:10:08.139Z,38.30
2019-03-25T12:12:36.977Z,38.90
2019-03-25T12:15:07.809Z,38.10
2019-03-25T12:17:36.721Z,37.50
2019-03-25T12:20:06.955Z,37.90
2019-03-25T12:22:35.803Z,38.50
2019-03-25T12:25:06.727Z,38.80
2019-03-25T12:27:35.574Z,38.70
2019-03-25T12:30:07.094Z,38.40
2019-03-25T12:32:36.028Z,38.20
2019-03-25T12:35:07.144Z,38.30
2019-03-25T12:37:35.985Z,38.50
2019-03-25T12:40:07.850Z,38.40
2019-03-25T12:42:37.200Z,38.50
2019-03-25T12:45:08.830Z,39.10
2019-03-25T12:47:37.720Z,39.30
2019-03-25T12:50:07.882Z,38.90
2019-03-25T12:52:36.744Z,39.00
2019-03-25T12:55:07.150Z,38.90
2019-03-25T12:57:35.993Z,39.10
2019-03-25T13:00:07.205Z,38.70
2019-03-25T13:02:36.092Z,39.20
2019-03-25T13:05:06.331Z,39.70
2019-03-25T13:07:35.191Z,39.50
2019-03-25T13:10:05.039Z,40.40
2019-03-25T13:12:33.914Z,40.70
2019-03-25T13:15:02.766Z,40.50
2019-03-25T13:17:31.678Z,40.10
2019-03-25T13:20:00.525Z,40.10
2019-03-25T13:22:29.369Z,39.90
2019-03-25T13:24:58.274Z,40.10
2019-03-25T13:27:27.116Z,40.50
2019-03-25T13:29:55.964Z,40.50
2019-03-25T13:32:24.881Z,40.60
2019-03-25T13:34:53.709Z,40.70
2019-03-25T13:37:22.560Z,40.50
2019-03-25T13:39:51.490Z,40.70
2019-03-25T13:42:20.349Z,40.60
2019-03-25T13:44:49.180Z,40.50
2019-03-25T13:47:18.066Z,40.60
2019-03-25T13:49:47.938Z,41.00
2019-03-25T13:52:16.776Z,41.00
2019-03-25T13:54:45.668Z,41.00
2019-03-25T13:57:14.514Z,41.30
2019-03-25T13:59:43.368Z,40.80
2019-03-25T14:02:12.276Z,40.60
2019-03-25T14:04:41.110Z,41.00
2019-03-25T14:07:09.953Z,41.00
2019-03-25T14:09:38.841Z,41.10
2019-03-25T14:12:07.678Z,41.10
2019-03-25T14:14:36.512Z,41.40
2019-03-25T14:17:05.403Z,41.40
2019-03-25T14:19:34.261Z,41.50
2019-03-25T14:22:03.085Z,41.30
2019-03-25T14:24:31.995Z,41.60
2019-03-25T14:27:00.844Z,41.60
2019-03-25T14:29:29.686Z,41.70
2019-03-25T14:31:58.580Z,42.30
2019-03-25T14:34:27.438Z,42.10
2019-03-25T14:36:56.270Z,42.20
2019-03-25T14:39:25.169Z,42.30
2019-03-25T14:41:54.030Z,42.20
2019-03-25T14:44:22.889Z,42.20
2019-03-25T14:46:51.951Z,42.30
2019-03-25T14:49:20.808Z,42.20
2019-03-25T14:51:50.754Z,42.50
2019-03-25T14:54:19.595Z,42.70
2019-03-25T14:56:48.448Z,42.60
2019-03-25T14:59:17.609Z,42.20
2019-03-25T15:01:47.936Z,42.20
2019-03-25T15:04:16.775Z,42.20
2019-03-25T15:06:45.708Z,42.30
2019-03-25T15:09:14.531Z,42.20
2019-03-25T15:11:43.365Z,42.40
2019-03-25T15:14:12.244Z,42.50
2019-03-25T15:16:41.087Z,42.50
2019-03-25T15:19:09.938Z,42.20
2019-03-25T15:21:38.848Z,42.00
2019-03-25T15:24:07.690Z,42.30
2019-03-25T15:26:36.534Z,42.20
2019-03-25T15:29:05.525Z,42.40
2019-03-25T15:31:34.373Z,42.70
2019-03-25T15:34:03.244Z,42.60
2019-03-25T15:36:32.534Z,42.90
2019-03-25T15:39:01.404Z,43.10
2019-03-25T15:41:30.253Z,43.20
2019-03-25T15:43:59.163Z,43.10
2019-03-25T15:46:27.990Z,43.20
2019-03-25T15:48:56.844Z,43.40
2019-03-25T15:51:25.766Z,43.00
2019-03-25T15:53:54.800Z,43.20
2019-03-25T15:56:23.713Z,43.80
2019-03-25T15:58:52.706Z,43.80
2019-03-25T16:01:21.701Z,43.50
2019-03-25T16:03:50.529Z,43.50
2019-03-25T16:06:19.429Z,43.90
2019-03-25T16:08:48.266Z,43.70
2019-03-25T16:11:17.114Z,43.90
2019-03-25T16:13:46.022Z,44.00
2019-03-25T16:16:14.861Z,44.00
2019-03-25T16:18:43.834Z,44.00
2019-03-25T16:21:12.870Z,44.10
2019-03-25T16:23:41.889Z,44.20
2019-03-25T16:26:10.783Z,44.40
2019-03-25T16:28:39.802Z,44.60
2019-03-25T16:31:08.794Z,44.90
2019-03-25T16:33:37.757Z,44.90
2019-03-25T16:36:06.965Z,44.30
2019-03-25T16:38:35.873Z,44.20
2019-03-25T16:41:04.698Z,44.30
2019-03-25T16:43:33.656Z,44.30
2019-03-25T16:46:02.546Z,44.40
2019-03-25T16:48:31.433Z,44.00
2019-03-25T16:51:00.720Z,43.70
2019-03-25T16:53:29.626Z,43.90
2019-03-25T16:55:59.537Z,43.90
2019-03-25T16:58:28.511Z,43.90
2019-03-25T17:00:57.422Z,43.80
2019-03-25T17:03:26.309Z,44.20
2019-03-25T17:05:55.302Z,44.20
2019-03-25T17:08:24.374Z,44.30
2019-03-25T17:10:53.390Z,44.50
2019-03-25T17:13:22.365Z,44.30
2019-03-25T17:15:51.377Z,44.20
2019-03-25T17:18:20.369Z,44.20
2019-03-25T17:20:49.337Z,44.30
2019-03-25T17:23:18.355Z,44.30
2019-03-25T17:25:53.064Z,44.50
2019-03-25T17:28:18.124Z,44.40
2019-03-25T17:30:47.080Z,44.60
2019-03-25T17:33:16.069Z,44.70
2019-03-25T17:35:45.170Z,44.70
2019-03-25T17:38:14.051Z,44.90
2019-03-25T17:40:42.941Z,45.10
2019-03-25T17:43:12.211Z,45.00
2019-03-25T17:45:41.417Z,44.90
2019-03-25T17:48:10.432Z,45.10
2019-03-25T17:50:39.397Z,45.70
2019-03-25T17:53:08.390Z,46.00
2019-03-25T17:55:37.318Z,46.60
2019-03-25T17:58:08.180Z,47.10
2019-03-25T18:00:49.013Z,47.60
2019-03-25T18:03:18.115Z,48.10
2019-03-25T18:05:47.101Z,48.80
2019-03-25T18:08:16.507Z,49.40
2019-03-25T18:10:45.398Z,49.80
2019-03-25T18:13:22.299Z,50.30
2019-03-25T18:15:44.781Z,50.70
2019-03-25T18:18:13.667Z,51.10
2019-03-25T18:20:42.510Z,51.40
2019-03-25T18:23:11.368Z,51.80
2019-03-25T18:25:40.268Z,52.00
2019-03-25T18:28:09.310Z,52.30
2019-03-25T18:30:38.255Z,52.20
2019-03-25T18:33:07.212Z,53.20
2019-03-25T18:35:36.062Z,52.60
2019-03-25T18:38:05.105Z,52.80
2019-03-25T18:40:33.989Z,53.00
2019-03-25T18:43:02.831Z,53.00
2019-03-25T18:45:31.765Z,53.20
2019-03-25T18:48:00.691Z,53.60
2019-03-25T18:50:29.559Z,53.70
2019-03-25T18:52:58.406Z,54.00
2019-03-25T18:55:27.459Z,54.50
2019-03-25T18:57:56.339Z,55.00
2019-03-25T19:00:36.059Z,55.40
2019-03-25T19:03:05.081Z,55.70
2019-03-25T19:05:33.929Z,56.20
2019-03-25T19:08:04.600Z,55.60
2019-03-25T19:10:33.642Z,55.80
2019-03-25T19:13:02.494Z,56.20
2019-03-25T19:15:31.355Z,56.20
2019-03-25T19:18:00.197Z,56.30
2019-03-25T19:20:29.048Z,56.30
2019-03-25T19:22:57.986Z,56.40
2019-03-25T19:25:26.801Z,57.00
2019-03-25T19:27:55.657Z,56.90
2019-03-25T19:30:24.668Z,57.10
2019-03-25T19:32:53.509Z,57.40
2019-03-25T19:35:22.339Z,57.20
2019-03-25T19:37:51.236Z,56.90
2019-03-25T19:40:20.079Z,57.50
2019-03-25T19:42:48.938Z,57.20
2019-03-25T19:45:18.093Z,57.20
2019-03-25T19:47:47.075Z,57.00
2019-03-25T19:50:16.672Z,56.80
2019-03-25T19:52:45.925Z,56.90
2019-03-25T19:55:15.269Z,56.80
2019-03-25T19:57:44.176Z,57.00
2019-03-25T20:00:13.586Z,57.50
2019-03-25T20:02:43.465Z,61.20
2019-03-25T20:05:12.871Z,64.60
2019-03-25T20:07:41.884Z,66.70
2019-03-25T20:10:19.708Z,67.70
2019-03-25T20:12:49.085Z,68.70
2019-03-25T20:15:17.965Z,69.50
2019-03-25T20:17:46.987Z,69.50
2019-03-25T20:20:15.834Z,70.60
2019-03-25T20:22:44.669Z,70.90
2019-03-25T20:25:13.539Z,71.20
2019-03-25T20:27:45.450Z,72.40
2019-03-25T20:30:14.669Z,72.20
2019-03-25T20:32:43.515Z,73.00
2019-03-25T20:35:12.539Z,72.80
2019-03-25T20:37:41.428Z,72.40
2019-03-25T20:40:10.498Z,72.40
2019-03-25T20:42:39.493Z,72.30
2019-03-25T20:45:09.174Z,72.90
2019-03-25T20:47:38.132Z,73.50
2019-03-25T20:50:07.942Z,73.40
2019-03-25T20:52:36.839Z,73.80
2019-03-25T20:55:10.754Z,74.40
2019-03-25T20:57:40.675Z,74.50
2019-03-25T21:00:10.736Z,75.40
2019-03-25T21:02:45.060Z,76.40
2019-03-25T21:05:10.515Z,77.50
2019-03-25T21:07:39.494Z,79.30
2019-03-25T21:10:08.724Z,80.00
2019-03-25T21:12:38.675Z,81.10
2019-03-25T21:15:09.189Z,80.70
2019-03-25T21:17:38.160Z,80.70
2019-03-25T21:20:08.892Z,80.90
2019-03-25T21:22:37.779Z,81.60
2019-03-25T21:25:07.616Z,82.00
2019-03-25T21:27:36.822Z,81.70
2019-03-25T21:30:07.793Z,82.50
2019-03-25T21:32:36.925Z,83.60
2019-03-25T21:35:07.700Z,84.20
2019-03-25T21:37:36.665Z,85.60
2019-03-25T21:40:07.255Z,87.30
2019-03-25T21:42:36.466Z,87.80
2019-03-25T21:45:08.196Z,87.20
2019-03-25T21:47:37.187Z,88.30
2019-03-25T21:50:09.789Z,88.90
2019-03-25T21:52:38.891Z,90.00
2019-03-25T21:55:08.410Z,90.00
2019-03-25T21:57:37.589Z,90.40
2019-03-25T22:00:07.437Z,90.30
2019-03-25T22:02:36.495Z,90.20
2019-03-25T22:05:07.485Z,89.50
2019-03-25T22:07:36.540Z,90.50
2019-03-25T22:10:06.114Z,90.80
2019-03-25T22:12:35.208Z,91.40
2019-03-25T22:15:06.786Z,91.20
2019-03-25T22:17:35.778Z,90.30
2019-03-25T22:20:08.060Z,90.50
2019-03-25T22:22:36.916Z,90.80
2019-03-25T22:25:07.862Z,90.70
2019-03-25T22:27:36.765Z,90.30
2019-03-25T22:30:09.952Z,91.20
2019-03-25T22:32:38.849Z,91.60
2019-03-25T22:35:08.153Z,91.40
2019-03-25T22:37:38.394Z,92.00
2019-03-25T22:40:08.134Z,91.20
2019-03-25T22:42:37.138Z,91.30
2019-03-25T22:45:06.864Z,91.50
2019-03-25T22:47:36.493Z,91.30
2019-03-25T22:50:10.328Z,91.20
2019-03-25T22:52:39.181Z,91.70
2019-03-25T22:55:08.177Z,91.90
2019-03-25T22:57:37.063Z,91.70
2019-03-25T23:00:07.900Z,91.10
2019-03-25T23:02:36.736Z,91.60
2019-03-25T23:05:06.571Z,91.80
2019-03-25T23:07:35.508Z,92.10
2019-03-25T23:10:05.772Z,91.60
2019-03-25T23:12:34.677Z,91.60
2019-03-25T23:15:03.715Z,91.90
2019-03-25T23:17:32.575Z,91.50
2019-03-25T23:20:01.447Z,91.70
2019-03-25T23:22:30.286Z,91.70
2019-03-25T23:24:59.137Z,91.10
2019-03-25T23:27:28.020Z,91.30
2019-03-25T23:29:56.847Z,90.70
2019-03-25T23:32:25.688Z,90.20
2019-03-25T23:34:54.600Z,90.40
2019-03-25T23:37:23.635Z,89.50
2019-03-25T23:39:52.454Z,89.90
2019-03-25T23:42:21.333Z,90.10
2019-03-25T23:44:50.181Z,90.40
2019-03-25T23:47:19.120Z,90.10
2019-03-25T23:49:48.078Z,89.40
2019-03-25T23:52:16.905Z,86.90
2019-03-25T23:54:45.741Z,88.30
2019-03-25T23:57:14.671Z,89.90
2019-03-25T23:59:43.508Z,88.10
